sensor_id;sensor_type;location;lat;lon;timestamp;temperature;humidity
29431;DHT22;16404;49.902;10.074;2023-02-28T00:00:04;2.50;56.00
29431;DHT22;16404;49.902;10.074;2023-02-28T00:02:56;2.50;56.10
29431;DHT22;16404;49.902;10.074;2023-02-28T00:05:40;2.40;56.10
29431;DHT22;16404;49.902;10.074;2023-02-28T00:08:25;2.40;56.20
29431;DHT22;16404;49.902;10.074;2023-02-28T00:11:13;2.40;56.20
29431;DHT22;16404;49.902;10.074;2023-02-28T00:13:58;2.50;56.30
29431;DHT22;16404;49.902;10.074;2023-02-28T00:16:43;2.40;56.20
29431;DHT22;16404;49.902;10.074;2023-02-28T00:19:27;2.40;56.30
29431;DHT22;16404;49.902;10.074;2023-02-28T00:22:12;2.40;56.40
29431;DHT22;16404;49.902;10.074;2023-02-28T00:24:56;2.40;56.40
29431;DHT22;16404;49.902;10.074;2023-02-28T00:27:41;2.30;56.60
29431;DHT22;16404;49.902;10.074;2023-02-28T00:30:26;2.30;56.70
29431;DHT22;16404;49.902;10.074;2023-02-28T00:33:11;2.30;56.70
29431;DHT22;16404;49.902;10.074;2023-02-28T00:36:08;2.30;56.80
29431;DHT22;16404;49.902;10.074;2023-02-28T00:38:56;2.20;56.80
29431;DHT22;16404;49.902;10.074;2023-02-28T00:41:41;2.20;56.80
29431;DHT22;16404;49.902;10.074;2023-02-28T00:44:25;2.20;57.00
29431;DHT22;16404;49.902;10.074;2023-02-28T00:47:10;2.20;57.00
29431;DHT22;16404;49.902;10.074;2023-02-28T00:49:55;2.10;57.10
29431;DHT22;16404;49.902;10.074;2023-02-28T00:52:39;2.10;57.10
29431;DHT22;16404;49.902;10.074;2023-02-28T00:55:24;2.10;57.10
29431;DHT22;16404;49.902;10.074;2023-02-28T00:58:08;2.00;57.20
29431;DHT22;16404;49.902;10.074;2023-02-28T01:00:53;2.00;57.30
29431;DHT22;16404;49.902;10.074;2023-02-28T01:03:38;2.00;57.40
29431;DHT22;16404;49.902;10.074;2023-02-28T01:06:23;2.00;57.50
29431;DHT22;16404;49.902;10.074;2023-02-28T01:09:08;1.90;57.50
29431;DHT22;16404;49.902;10.074;2023-02-28T01:11:52;1.90;57.50
29431;DHT22;16404;49.902;10.074;2023-02-28T01:14:37;1.90;57.70
29431;DHT22;16404;49.902;10.074;2023-02-28T01:17:22;1.90;57.70
29431;DHT22;16404;49.902;10.074;2023-02-28T01:20:07;2.00;57.60
29431;DHT22;16404;49.902;10.074;2023-02-28T01:22:51;2.00;57.30
29431;DHT22;16404;49.902;10.074;2023-02-28T01:25:36;1.90;57.40
29431;DHT22;16404;49.902;10.074;2023-02-28T01:28:22;1.90;57.50
29431;DHT22;16404;49.902;10.074;2023-02-28T01:31:09;1.90;57.40
29431;DHT22;16404;49.902;10.074;2023-02-28T01:33:55;1.90;57.50
29431;DHT22;16404;49.902;10.074;2023-02-28T01:36:39;1.90;57.50
29431;DHT22;16404;49.902;10.074;2023-02-28T01:39:25;1.90;57.60
29431;DHT22;16404;49.902;10.074;2023-02-28T01:42:10;1.80;57.70
29431;DHT22;16404;49.902;10.074;2023-02-28T01:47:50;1.80;57.80
29431;DHT22;16404;49.902;10.074;2023-02-28T01:50:40;1.80;57.70
29431;DHT22;16404;49.902;10.074;2023-02-28T01:53:29;1.80;57.70
29431;DHT22;16404;49.902;10.074;2023-02-28T01:56:20;1.80;57.70
29431;DHT22;16404;49.902;10.074;2023-02-28T01:59:07;1.80;57.90
29431;DHT22;16404;49.902;10.074;2023-02-28T02:01:52;1.80;57.80
29431;DHT22;16404;49.902;10.074;2023-02-28T02:04:41;1.80;57.70
29431;DHT22;16404;49.902;10.074;2023-02-28T02:07:35;1.70;57.70
29431;DHT22;16404;49.902;10.074;2023-02-28T02:10:35;1.70;57.80
29431;DHT22;16404;49.902;10.074;2023-02-28T02:31:29;1.50;58.00
29431;DHT22;16404;49.902;10.074;2023-02-28T02:34:39;1.50;58.20
29431;DHT22;16404;49.902;10.074;2023-02-28T02:37:37;1.50;58.20
29431;DHT22;16404;49.902;10.074;2023-02-28T02:40:35;1.50;58.20
29431;DHT22;16404;49.902;10.074;2023-02-28T02:46:47;1.40;58.10
29431;DHT22;16404;49.902;10.074;2023-02-28T02:49:35;1.40;58.20
29431;DHT22;16404;49.902;10.074;2023-02-28T02:52:23;1.40;58.20
29431;DHT22;16404;49.902;10.074;2023-02-28T02:55:11;1.40;58.30
29431;DHT22;16404;49.902;10.074;2023-02-28T02:58:03;1.40;58.40
29431;DHT22;16404;49.902;10.074;2023-02-28T03:00:52;1.30;58.40
29431;DHT22;16404;49.902;10.074;2023-02-28T03:03:37;1.40;58.50
29431;DHT22;16404;49.902;10.074;2023-02-28T03:06:22;1.40;58.50
29431;DHT22;16404;49.902;10.074;2023-02-28T03:09:07;1.40;58.50
29431;DHT22;16404;49.902;10.074;2023-02-28T03:11:54;1.40;58.50
29431;DHT22;16404;49.902;10.074;2023-02-28T03:18:10;1.30;58.70
29431;DHT22;16404;49.902;10.074;2023-02-28T03:21:23;1.30;58.70
29431;DHT22;16404;49.902;10.074;2023-02-28T03:24:17;1.20;58.70
29431;DHT22;16404;49.902;10.074;2023-02-28T03:27:26;1.30;58.70
29431;DHT22;16404;49.902;10.074;2023-02-28T03:30:38;1.30;58.70
29431;DHT22;16404;49.902;10.074;2023-02-28T03:33:32;1.30;58.70
29431;DHT22;16404;49.902;10.074;2023-02-28T03:36:20;1.30;58.50
29431;DHT22;16404;49.902;10.074;2023-02-28T03:39:08;1.30;58.60
29431;DHT22;16404;49.902;10.074;2023-02-28T03:42:20;1.30;58.70
29431;DHT22;16404;49.902;10.074;2023-02-28T03:45:11;1.20;58.90
29431;DHT22;16404;49.902;10.074;2023-02-28T03:48:08;1.20;58.90
29431;DHT22;16404;49.902;10.074;2023-02-28T03:50:58;1.30;58.90
29431;DHT22;16404;49.902;10.074;2023-02-28T03:53:53;1.30;58.90
29431;DHT22;16404;49.902;10.074;2023-02-28T03:57:03;1.30;58.90
29431;DHT22;16404;49.902;10.074;2023-02-28T04:00:14;1.30;58.90
29431;DHT22;16404;49.902;10.074;2023-02-28T04:03:01;1.30;58.80
29431;DHT22;16404;49.902;10.074;2023-02-28T04:05:54;1.30;58.70
29431;DHT22;16404;49.902;10.074;2023-02-28T04:08:39;1.30;58.90
29431;DHT22;16404;49.902;10.074;2023-02-28T04:11:36;1.30;58.90
29431;DHT22;16404;49.902;10.074;2023-02-28T04:14:21;1.30;59.00
29431;DHT22;16404;49.902;10.074;2023-02-28T04:17:05;1.30;58.90
29431;DHT22;16404;49.902;10.074;2023-02-28T04:19:50;1.40;58.90
29431;DHT22;16404;49.902;10.074;2023-02-28T04:22:35;1.40;58.60
29431;DHT22;16404;49.902;10.074;2023-02-28T04:25:19;1.30;58.60
29431;DHT22;16404;49.902;10.074;2023-02-28T04:28:04;1.40;58.60
29431;DHT22;16404;49.902;10.074;2023-02-28T04:30:57;1.40;58.40
29431;DHT22;16404;49.902;10.074;2023-02-28T04:33:42;1.30;58.50
29431;DHT22;16404;49.902;10.074;2023-02-28T04:36:27;1.30;58.60
29431;DHT22;16404;49.902;10.074;2023-02-28T04:39:12;1.30;58.70
29431;DHT22;16404;49.902;10.074;2023-02-28T04:41:56;1.20;58.80
29431;DHT22;16404;49.902;10.074;2023-02-28T04:44:41;1.20;58.90
29431;DHT22;16404;49.902;10.074;2023-02-28T04:47:25;1.20;58.90
29431;DHT22;16404;49.902;10.074;2023-02-28T04:50:10;1.30;59.00
29431;DHT22;16404;49.902;10.074;2023-02-28T04:52:55;1.30;59.00
29431;DHT22;16404;49.902;10.074;2023-02-28T04:55:40;1.20;58.90
29431;DHT22;16404;49.902;10.074;2023-02-28T04:58:25;1.30;58.90
29431;DHT22;16404;49.902;10.074;2023-02-28T05:01:29;1.30;58.90
29431;DHT22;16404;49.902;10.074;2023-02-28T05:04:14;1.30;58.90
29431;DHT22;16404;49.902;10.074;2023-02-28T05:06:58;1.30;58.70
29431;DHT22;16404;49.902;10.074;2023-02-28T05:09:43;1.30;58.70
29431;DHT22;16404;49.902;10.074;2023-02-28T05:12:28;1.30;59.30
29431;DHT22;16404;49.902;10.074;2023-02-28T05:15:13;1.30;58.90
29431;DHT22;16404;49.902;10.074;2023-02-28T05:17:58;1.30;58.80
29431;DHT22;16404;49.902;10.074;2023-02-28T05:20:43;1.30;58.80
29431;DHT22;16404;49.902;10.074;2023-02-28T05:23:28;1.30;59.30
29431;DHT22;16404;49.902;10.074;2023-02-28T05:26:12;1.30;58.70
29431;DHT22;16404;49.902;10.074;2023-02-28T05:28:57;1.20;58.40
29431;DHT22;16404;49.902;10.074;2023-02-28T05:31:42;1.20;58.50
29431;DHT22;16404;49.902;10.074;2023-02-28T05:34:26;1.20;58.50
29431;DHT22;16404;49.902;10.074;2023-02-28T05:37:12;1.30;58.60
29431;DHT22;16404;49.902;10.074;2023-02-28T05:39:57;1.30;58.60
29431;DHT22;16404;49.902;10.074;2023-02-28T05:42:42;1.30;58.50
29431;DHT22;16404;49.902;10.074;2023-02-28T05:45:27;1.30;58.50
29431;DHT22;16404;49.902;10.074;2023-02-28T05:48:12;1.30;58.40
29431;DHT22;16404;49.902;10.074;2023-02-28T05:50:57;1.30;58.50
29431;DHT22;16404;49.902;10.074;2023-02-28T05:53:42;1.30;58.40
29431;DHT22;16404;49.902;10.074;2023-02-28T05:56:27;1.30;58.30
29431;DHT22;16404;49.902;10.074;2023-02-28T05:59:14;1.30;58.30
29431;DHT22;16404;49.902;10.074;2023-02-28T06:01:59;1.30;58.30
29431;DHT22;16404;49.902;10.074;2023-02-28T06:04:44;1.20;58.20
29431;DHT22;16404;49.902;10.074;2023-02-28T06:07:28;1.20;58.20
29431;DHT22;16404;49.902;10.074;2023-02-28T06:10:13;1.20;58.30
29431;DHT22;16404;49.902;10.074;2023-02-28T06:13:00;1.20;58.20
29431;DHT22;16404;49.902;10.074;2023-02-28T06:15:46;1.30;58.30
29431;DHT22;16404;49.902;10.074;2023-02-28T06:18:31;1.30;58.10
29431;DHT22;16404;49.902;10.074;2023-02-28T06:21:15;1.30;58.10
29431;DHT22;16404;49.902;10.074;2023-02-28T06:24:01;1.30;58.20
29431;DHT22;16404;49.902;10.074;2023-02-28T06:26:45;1.20;58.10
29431;DHT22;16404;49.902;10.074;2023-02-28T06:29:30;1.20;58.10
29431;DHT22;16404;49.902;10.074;2023-02-28T06:32:14;1.10;58.20
29431;DHT22;16404;49.902;10.074;2023-02-28T06:34:59;1.10;58.40
29431;DHT22;16404;49.902;10.074;2023-02-28T06:37:44;1.10;58.50
29431;DHT22;16404;49.902;10.074;2023-02-28T06:40:28;1.20;58.50
29431;DHT22;16404;49.902;10.074;2023-02-28T06:43:15;1.20;58.50
29431;DHT22;16404;49.902;10.074;2023-02-28T06:46:01;1.20;58.40
29431;DHT22;16404;49.902;10.074;2023-02-28T06:48:46;1.20;58.40
29431;DHT22;16404;49.902;10.074;2023-02-28T06:51:30;1.20;58.40
29431;DHT22;16404;49.902;10.074;2023-02-28T06:54:15;1.30;58.30
29431;DHT22;16404;49.902;10.074;2023-02-28T06:57:00;1.40;58.30
29431;DHT22;16404;49.902;10.074;2023-02-28T06:59:44;1.40;58.20
29431;DHT22;16404;49.902;10.074;2023-02-28T07:02:29;1.50;58.10
29431;DHT22;16404;49.902;10.074;2023-02-28T07:05:13;1.50;58.60
29431;DHT22;16404;49.902;10.074;2023-02-28T07:07:58;1.60;58.10
29431;DHT22;16404;49.902;10.074;2023-02-28T07:10:43;1.60;58.00
29431;DHT22;16404;49.902;10.074;2023-02-28T07:13:28;1.60;58.10
29431;DHT22;16404;49.902;10.074;2023-02-28T07:16:12;1.60;58.10
29431;DHT22;16404;49.902;10.074;2023-02-28T07:18:57;1.70;58.10
29431;DHT22;16404;49.902;10.074;2023-02-28T07:21:42;1.80;58.20
29431;DHT22;16404;49.902;10.074;2023-02-28T07:24:26;1.80;58.10
29431;DHT22;16404;49.902;10.074;2023-02-28T07:27:13;1.90;58.10
29431;DHT22;16404;49.902;10.074;2023-02-28T07:30:08;2.00;58.10
29431;DHT22;16404;49.902;10.074;2023-02-28T07:32:52;2.00;58.00
29431;DHT22;16404;49.902;10.074;2023-02-28T07:35:40;2.10;58.00
29431;DHT22;16404;49.902;10.074;2023-02-28T07:38:25;2.20;58.00
29431;DHT22;16404;49.902;10.074;2023-02-28T07:41:10;2.40;58.00
29431;DHT22;16404;49.902;10.074;2023-02-28T07:43:54;2.50;57.90
29431;DHT22;16404;49.902;10.074;2023-02-28T07:46:41;2.60;57.80
29431;DHT22;16404;49.902;10.074;2023-02-28T07:49:25;2.80;57.70
29431;DHT22;16404;49.902;10.074;2023-02-28T07:52:10;3.00;57.50
29431;DHT22;16404;49.902;10.074;2023-02-28T07:54:54;3.20;57.40
29431;DHT22;16404;49.902;10.074;2023-02-28T07:57:40;3.30;57.10
29431;DHT22;16404;49.902;10.074;2023-02-28T08:00:24;3.40;56.90
29431;DHT22;16404;49.902;10.074;2023-02-28T08:03:11;3.50;56.80
29431;DHT22;16404;49.902;10.074;2023-02-28T08:05:57;3.60;56.70
29431;DHT22;16404;49.902;10.074;2023-02-28T08:08:42;3.60;57.20
29431;DHT22;16404;49.902;10.074;2023-02-28T08:11:26;3.80;56.60
29431;DHT22;16404;49.902;10.074;2023-02-28T08:14:11;4.00;56.50
29431;DHT22;16404;49.902;10.074;2023-02-28T08:16:55;4.20;56.30
29431;DHT22;16404;49.902;10.074;2023-02-28T08:19:40;4.50;56.20
29431;DHT22;16404;49.902;10.074;2023-02-28T08:22:25;4.70;55.70
29431;DHT22;16404;49.902;10.074;2023-02-28T08:25:09;4.90;55.30
29431;DHT22;16404;49.902;10.074;2023-02-28T08:27:54;5.00;54.90
29431;DHT22;16404;49.902;10.074;2023-02-28T08:30:38;5.10;54.50
29431;DHT22;16404;49.902;10.074;2023-02-28T08:33:26;5.30;54.90
29431;DHT22;16404;49.902;10.074;2023-02-28T08:36:11;5.40;54.20
29431;DHT22;16404;49.902;10.074;2023-02-28T08:38:56;5.60;54.00
29431;DHT22;16404;49.902;10.074;2023-02-28T08:41:54;5.80;54.00
29431;DHT22;16404;49.902;10.074;2023-02-28T08:45:06;6.00;53.30
29431;DHT22;16404;49.902;10.074;2023-02-28T08:48:51;6.30;53.10
29431;DHT22;16404;49.902;10.074;2023-02-28T08:52:33;6.60;52.40
29431;DHT22;16404;49.902;10.074;2023-02-28T08:55:17;6.80;52.30
29431;DHT22;16404;49.902;10.074;2023-02-28T08:58:02;7.00;52.10
29431;DHT22;16404;49.902;10.074;2023-02-28T09:00:46;7.20;51.80
29431;DHT22;16404;49.902;10.074;2023-02-28T09:03:30;7.30;51.40
29431;DHT22;16404;49.902;10.074;2023-02-28T09:06:17;7.50;51.20
29431;DHT22;16404;49.902;10.074;2023-02-28T09:09:03;7.70;50.80
29431;DHT22;16404;49.902;10.074;2023-02-28T09:11:50;7.80;50.70
29431;DHT22;16404;49.902;10.074;2023-02-28T09:14:34;7.90;49.50
29431;DHT22;16404;49.902;10.074;2023-02-28T09:17:19;7.90;49.00
29431;DHT22;16404;49.902;10.074;2023-02-28T09:20:04;8.00;48.90
29431;DHT22;16404;49.902;10.074;2023-02-28T09:22:49;8.10;49.10
29431;DHT22;16404;49.902;10.074;2023-02-28T09:25:34;8.20;48.30
29431;DHT22;16404;49.902;10.074;2023-02-28T09:28:18;8.10;47.80
29431;DHT22;16404;49.902;10.074;2023-02-28T09:31:03;8.10;47.90
29431;DHT22;16404;49.902;10.074;2023-02-28T09:33:50;8.10;47.40
29431;DHT22;16404;49.902;10.074;2023-02-28T09:36:35;8.10;47.40
29431;DHT22;16404;49.902;10.074;2023-02-28T09:39:22;8.10;46.70
29431;DHT22;16404;49.902;10.074;2023-02-28T09:42:21;8.10;46.40
29431;DHT22;16404;49.902;10.074;2023-02-28T09:48:08;8.20;45.80
29431;DHT22;16404;49.902;10.074;2023-02-28T09:51:04;8.10;45.60
29431;DHT22;16404;49.902;10.074;2023-02-28T09:53:50;8.00;45.50
29431;DHT22;16404;49.902;10.074;2023-02-28T09:56:40;7.90;45.60
29431;DHT22;16404;49.902;10.074;2023-02-28T10:03:03;7.60;45.30
29431;DHT22;16404;49.902;10.074;2023-02-28T10:06:06;7.40;45.60
29431;DHT22;16404;49.902;10.074;2023-02-28T10:09:04;7.30;46.00
29431;DHT22;16404;49.902;10.074;2023-02-28T10:11:55;7.10;46.40
29431;DHT22;16404;49.902;10.074;2023-02-28T10:14:45;7.10;46.70
29431;DHT22;16404;49.902;10.074;2023-02-28T10:17:38;6.90;46.50
29431;DHT22;16404;49.902;10.074;2023-02-28T10:20:24;6.80;46.60
29431;DHT22;16404;49.902;10.074;2023-02-28T10:23:41;6.80;47.00
29431;DHT22;16404;49.902;10.074;2023-02-28T10:26:30;6.70;47.20
29431;DHT22;16404;49.902;10.074;2023-02-28T10:29:15;6.70;47.10
29431;DHT22;16404;49.902;10.074;2023-02-28T10:32:02;6.70;46.80
29431;DHT22;16404;49.902;10.074;2023-02-28T10:34:57;6.70;46.90
29431;DHT22;16404;49.902;10.074;2023-02-28T10:37:45;6.60;46.60
29431;DHT22;16404;49.902;10.074;2023-02-28T10:40:33;6.70;46.80
29431;DHT22;16404;49.902;10.074;2023-02-28T10:43:21;6.70;46.90
29431;DHT22;16404;49.902;10.074;2023-02-28T10:49:17;6.70;46.80
29431;DHT22;16404;49.902;10.074;2023-02-28T10:52:03;6.70;46.70
29431;DHT22;16404;49.902;10.074;2023-02-28T10:54:48;6.80;46.80
29431;DHT22;16404;49.902;10.074;2023-02-28T10:57:33;6.80;46.60
29431;DHT22;16404;49.902;10.074;2023-02-28T11:00:23;6.80;46.40
29431;DHT22;16404;49.902;10.074;2023-02-28T11:03:31;6.70;46.20
29431;DHT22;16404;49.902;10.074;2023-02-28T11:06:26;6.60;46.40
29431;DHT22;16404;49.902;10.074;2023-02-28T11:09:26;6.70;46.40
29431;DHT22;16404;49.902;10.074;2023-02-28T11:12:38;6.70;46.40
29431;DHT22;16404;49.902;10.074;2023-02-28T11:15:25;6.70;46.30
29431;DHT22;16404;49.902;10.074;2023-02-28T11:18:24;6.70;46.30
29431;DHT22;16404;49.902;10.074;2023-02-28T11:21:18;6.70;46.20
29431;DHT22;16404;49.902;10.074;2023-02-28T11:24:40;6.70;46.10
29431;DHT22;16404;49.902;10.074;2023-02-28T11:30:38;6.60;46.20
29431;DHT22;16404;49.902;10.074;2023-02-28T11:36:23;6.50;46.10
29431;DHT22;16404;49.902;10.074;2023-02-28T11:39:11;6.40;46.30
29431;DHT22;16404;49.902;10.074;2023-02-28T11:48:16;6.30;46.70
29431;DHT22;16404;49.902;10.074;2023-02-28T11:51:29;6.30;46.70
29431;DHT22;16404;49.902;10.074;2023-02-28T11:57:24;6.40;46.80
29431;DHT22;16404;49.902;10.074;2023-02-28T12:03:27;6.50;46.60
29431;DHT22;16404;49.902;10.074;2023-02-28T12:15:39;6.60;46.50
29431;DHT22;16404;49.902;10.074;2023-02-28T12:18:38;6.60;46.40
29431;DHT22;16404;49.902;10.074;2023-02-28T12:24:55;6.60;46.30
29431;DHT22;16404;49.902;10.074;2023-02-28T12:27:46;6.60;46.30
29431;DHT22;16404;49.902;10.074;2023-02-28T12:30:34;6.60;46.20
29431;DHT22;16404;49.902;10.074;2023-02-28T12:33:22;6.60;46.90
29431;DHT22;16404;49.902;10.074;2023-02-28T12:36:15;6.70;46.30
29431;DHT22;16404;49.902;10.074;2023-02-28T12:41:56;6.70;46.20
29431;DHT22;16404;49.902;10.074;2023-02-28T12:45:01;6.70;46.10
29431;DHT22;16404;49.902;10.074;2023-02-28T12:47:50;6.80;46.10
29431;DHT22;16404;49.902;10.074;2023-02-28T12:50:37;6.90;46.10
29431;DHT22;16404;49.902;10.074;2023-02-28T12:53:43;6.90;46.00
29431;DHT22;16404;49.902;10.074;2023-02-28T12:56:36;7.00;46.10
29431;DHT22;16404;49.902;10.074;2023-02-28T12:59:32;7.00;45.90
29431;DHT22;16404;49.902;10.074;2023-02-28T13:08:57;7.10;46.00
29431;DHT22;16404;49.902;10.074;2023-02-28T13:11:46;7.10;45.80
29431;DHT22;16404;49.902;10.074;2023-02-28T13:17:23;7.20;45.60
29431;DHT22;16404;49.902;10.074;2023-02-28T13:20:26;7.20;45.70
29431;DHT22;16404;49.902;10.074;2023-02-28T13:24:35;7.10;45.50
29431;DHT22;16404;49.902;10.074;2023-02-28T13:29:32;7.10;45.50
29431;DHT22;16404;49.902;10.074;2023-02-28T13:32:33;7.20;45.70
29431;DHT22;16404;49.902;10.074;2023-02-28T13:35:36;7.10;45.60
29431;DHT22;16404;49.902;10.074;2023-02-28T13:44:18;7.30;45.70
29431;DHT22;16404;49.902;10.074;2023-02-28T13:47:16;7.30;45.60
29431;DHT22;16404;49.902;10.074;2023-02-28T13:59:26;7.50;45.50
29431;DHT22;16404;49.902;10.074;2023-02-28T14:05:17;7.60;45.60
29431;DHT22;16404;49.902;10.074;2023-02-28T14:08:15;7.60;45.50
29431;DHT22;16404;49.902;10.074;2023-02-28T14:11:15;7.60;45.40
29431;DHT22;16404;49.902;10.074;2023-02-28T14:14:09;7.60;45.20
29431;DHT22;16404;49.902;10.074;2023-02-28T14:17:15;7.60;45.20
29431;DHT22;16404;49.902;10.074;2023-02-28T14:20:01;7.70;45.20
29431;DHT22;16404;49.902;10.074;2023-02-28T14:29:30;7.60;45.10
29431;DHT22;16404;49.902;10.074;2023-02-28T14:35:39;7.70;45.10
29431;DHT22;16404;49.902;10.074;2023-02-28T14:38:38;7.70;45.00
29431;DHT22;16404;49.902;10.074;2023-02-28T14:41:31;7.90;45.20
29431;DHT22;16404;49.902;10.074;2023-02-28T14:44:19;7.80;44.80
29431;DHT22;16404;49.902;10.074;2023-02-28T14:47:04;7.80;44.80
29431;DHT22;16404;49.902;10.074;2023-02-28T14:49:58;7.80;44.80
29431;DHT22;16404;49.902;10.074;2023-02-28T14:52:43;7.80;44.70
29431;DHT22;16404;49.902;10.074;2023-02-28T14:55:33;7.90;44.70
29431;DHT22;16404;49.902;10.074;2023-02-28T14:58:25;7.90;44.60
29431;DHT22;16404;49.902;10.074;2023-02-28T15:01:10;7.90;44.40
29431;DHT22;16404;49.902;10.074;2023-02-28T15:04:05;7.90;44.50
29431;DHT22;16404;49.902;10.074;2023-02-28T15:07:09;8.00;44.70
29431;DHT22;16404;49.902;10.074;2023-02-28T15:10:26;7.90;44.50
29431;DHT22;16404;49.902;10.074;2023-02-28T15:13:13;8.00;44.50
29431;DHT22;16404;49.902;10.074;2023-02-28T15:16:04;8.00;44.50
29431;DHT22;16404;49.902;10.074;2023-02-28T15:18:54;8.10;44.40
29431;DHT22;16404;49.902;10.074;2023-02-28T15:21:48;8.10;44.20
29431;DHT22;16404;49.902;10.074;2023-02-28T15:24:41;8.00;44.10
29431;DHT22;16404;49.902;10.074;2023-02-28T15:27:29;8.00;44.20
29431;DHT22;16404;49.902;10.074;2023-02-28T15:30:21;8.00;44.10
29431;DHT22;16404;49.902;10.074;2023-02-28T15:36:10;7.90;43.90
29431;DHT22;16404;49.902;10.074;2023-02-28T15:38:55;7.80;44.00
29431;DHT22;16404;49.902;10.074;2023-02-28T15:41:40;7.80;44.20
29431;DHT22;16404;49.902;10.074;2023-02-28T15:44:30;7.80;44.20
29431;DHT22;16404;49.902;10.074;2023-02-28T15:47:25;7.80;44.30
29431;DHT22;16404;49.902;10.074;2023-02-28T15:50:13;7.80;44.40
29431;DHT22;16404;49.902;10.074;2023-02-28T15:53:00;7.80;44.30
29431;DHT22;16404;49.902;10.074;2023-02-28T15:55:54;7.80;44.20
29431;DHT22;16404;49.902;10.074;2023-02-28T15:58:41;7.80;44.20
29431;DHT22;16404;49.902;10.074;2023-02-28T16:01:29;7.80;44.10
29431;DHT22;16404;49.902;10.074;2023-02-28T16:04:19;7.70;44.20
29431;DHT22;16404;49.902;10.074;2023-02-28T16:07:05;7.70;44.20
29431;DHT22;16404;49.902;10.074;2023-02-28T16:09:50;7.70;44.10
29431;DHT22;16404;49.902;10.074;2023-02-28T16:12:35;7.70;44.20
29431;DHT22;16404;49.902;10.074;2023-02-28T16:15:28;7.70;44.40
29431;DHT22;16404;49.902;10.074;2023-02-28T16:18:13;7.60;44.10
29431;DHT22;16404;49.902;10.074;2023-02-28T16:20:57;7.60;44.40
29431;DHT22;16404;49.902;10.074;2023-02-28T16:23:42;7.50;44.50
29431;DHT22;16404;49.902;10.074;2023-02-28T16:26:27;7.50;44.60
29431;DHT22;16404;49.902;10.074;2023-02-28T16:29:17;7.50;44.70
29431;DHT22;16404;49.902;10.074;2023-02-28T16:32:06;7.50;44.70
29431;DHT22;16404;49.902;10.074;2023-02-28T16:34:51;7.50;44.60
29431;DHT22;16404;49.902;10.074;2023-02-28T16:37:35;7.40;44.70
29431;DHT22;16404;49.902;10.074;2023-02-28T16:40:23;7.40;44.90
29431;DHT22;16404;49.902;10.074;2023-02-28T16:43:24;7.30;45.00
29431;DHT22;16404;49.902;10.074;2023-02-28T16:46:11;7.30;45.10
29431;DHT22;16404;49.902;10.074;2023-02-28T16:48:56;7.30;45.00
29431;DHT22;16404;49.902;10.074;2023-02-28T16:51:41;7.30;45.10
29431;DHT22;16404;49.902;10.074;2023-02-28T16:54:25;7.20;45.10
29431;DHT22;16404;49.902;10.074;2023-02-28T16:57:16;7.20;45.20
29431;DHT22;16404;49.902;10.074;2023-02-28T17:00:03;7.20;45.20
29431;DHT22;16404;49.902;10.074;2023-02-28T17:02:48;7.10;45.00
29431;DHT22;16404;49.902;10.074;2023-02-28T17:05:36;7.10;45.20
29431;DHT22;16404;49.902;10.074;2023-02-28T17:08:22;7.10;45.30
29431;DHT22;16404;49.902;10.074;2023-02-28T17:11:08;7.00;45.40
29431;DHT22;16404;49.902;10.074;2023-02-28T17:13:53;6.90;45.50
29431;DHT22;16404;49.902;10.074;2023-02-28T17:16:40;6.90;45.50
29431;DHT22;16404;49.902;10.074;2023-02-28T17:19:25;6.90;45.60
29431;DHT22;16404;49.902;10.074;2023-02-28T17:22:10;6.80;45.70
29431;DHT22;16404;49.902;10.074;2023-02-28T17:24:54;6.70;45.70
29431;DHT22;16404;49.902;10.074;2023-02-28T17:27:43;6.60;45.90
29431;DHT22;16404;49.902;10.074;2023-02-28T17:30:28;6.50;46.00
29431;DHT22;16404;49.902;10.074;2023-02-28T17:33:12;6.40;46.10
29431;DHT22;16404;49.902;10.074;2023-02-28T17:35:57;6.30;46.10
29431;DHT22;16404;49.902;10.074;2023-02-28T17:38:42;6.20;46.50
29431;DHT22;16404;49.902;10.074;2023-02-28T17:41:26;6.10;46.60
29431;DHT22;16404;49.902;10.074;2023-02-28T17:44:11;6.00;46.70
29431;DHT22;16404;49.902;10.074;2023-02-28T17:46:56;6.00;46.80
29431;DHT22;16404;49.902;10.074;2023-02-28T17:49:40;5.90;47.00
29431;DHT22;16404;49.902;10.074;2023-02-28T17:52:25;5.80;47.30
29431;DHT22;16404;49.902;10.074;2023-02-28T17:55:10;5.80;47.20
29431;DHT22;16404;49.902;10.074;2023-02-28T17:57:55;5.80;47.20
29431;DHT22;16404;49.902;10.074;2023-02-28T18:00:39;5.70;47.40
29431;DHT22;16404;49.902;10.074;2023-02-28T18:03:24;5.60;47.50
29431;DHT22;16404;49.902;10.074;2023-02-28T18:09:05;5.50;47.90
29431;DHT22;16404;49.902;10.074;2023-02-28T18:11:51;5.50;48.00
29431;DHT22;16404;49.902;10.074;2023-02-28T18:14:35;5.40;48.20
29431;DHT22;16404;49.902;10.074;2023-02-28T18:17:20;5.40;48.30
29431;DHT22;16404;49.902;10.074;2023-02-28T18:20:05;5.40;48.40
29431;DHT22;16404;49.902;10.074;2023-02-28T18:22:49;5.40;48.40
29431;DHT22;16404;49.902;10.074;2023-02-28T18:25:34;5.50;48.30
29431;DHT22;16404;49.902;10.074;2023-02-28T18:28:18;5.60;48.00
29431;DHT22;16404;49.902;10.074;2023-02-28T18:31:07;5.60;48.00
29431;DHT22;16404;49.902;10.074;2023-02-28T18:33:52;5.50;48.20
29431;DHT22;16404;49.902;10.074;2023-02-28T18:36:37;5.50;48.30
29431;DHT22;16404;49.902;10.074;2023-02-28T18:39:21;5.40;48.30
29431;DHT22;16404;49.902;10.074;2023-02-28T18:42:06;5.40;48.40
29431;DHT22;16404;49.902;10.074;2023-02-28T18:44:50;5.30;48.50
29431;DHT22;16404;49.902;10.074;2023-02-28T18:47:35;5.30;48.70
29431;DHT22;16404;49.902;10.074;2023-02-28T18:50:20;5.20;48.80
29431;DHT22;16404;49.902;10.074;2023-02-28T18:53:04;5.20;48.80
29431;DHT22;16404;49.902;10.074;2023-02-28T18:55:49;5.10;48.90
29431;DHT22;16404;49.902;10.074;2023-02-28T18:58:34;5.10;48.90
29431;DHT22;16404;49.902;10.074;2023-02-28T19:01:26;5.00;49.00
29431;DHT22;16404;49.902;10.074;2023-02-28T19:04:13;5.00;49.20
29431;DHT22;16404;49.902;10.074;2023-02-28T19:06:58;4.90;49.00
29431;DHT22;16404;49.902;10.074;2023-02-28T19:09:42;4.80;49.40
29431;DHT22;16404;49.902;10.074;2023-02-28T19:12:27;4.80;49.60
29431;DHT22;16404;49.902;10.074;2023-02-28T19:15:12;4.70;49.80
29431;DHT22;16404;49.902;10.074;2023-02-28T19:17:57;4.60;50.10
29431;DHT22;16404;49.902;10.074;2023-02-28T19:20:41;4.70;50.20
29431;DHT22;16404;49.902;10.074;2023-02-28T19:23:26;4.80;50.20
29431;DHT22;16404;49.902;10.074;2023-02-28T19:26:17;4.80;50.00
29431;DHT22;16404;49.902;10.074;2023-02-28T19:29:04;4.80;50.00
29431;DHT22;16404;49.902;10.074;2023-02-28T19:31:49;4.70;50.10
29431;DHT22;16404;49.902;10.074;2023-02-28T19:34:33;4.70;50.20
29431;DHT22;16404;49.902;10.074;2023-02-28T19:37:18;4.80;50.90
29431;DHT22;16404;49.902;10.074;2023-02-28T19:40:03;4.70;50.30
29431;DHT22;16404;49.902;10.074;2023-02-28T19:42:47;4.70;50.50